Aviation weather information 2019-04-19 16:22 UTC

TAF(FCEO32)
FCEO32 EETN 191200 AAA
TAF AMD EEKA 191600Z 1913/1919 CNL=
FCEO32 EETN 191400
TAF EEKE 191400Z 1915/1921 35010KT CAVOK=

TAF(FTEO31)
FTEO31 EETN 191100
TAF EETN 191125Z 1912/2012 33010KT CAVOK TEMPO 1919/2006 VRB02KT
     SCT015 BKN045=

TAF(FTEO33)
FTEO33 EEEI 191130
TAF EEEI 191130Z 1912/2012 29008KT CAVOK BECMG 1921/1923 36006KT=

Weather observation (METAR/SPECI)
METAR EETN 191620Z 26009KT CAVOK 13/00 Q1031 NOSIG=
METAR EEEI 191550Z 26007KT CAVOK 10/01 Q1032 NOSIG=
METAR EETU 191620Z AUTO 05011KT 9999 SCT180/// 15/M04 Q1030=
METAR EEPU 191550Z NIL=
METAR EEKE 191550Z 33009KT 290V010 CAVOK 14/M00 Q1033=
METAR EEKA 191550Z NIL=